createdAt,value
2023-03-10T00:00:17.488Z,10.59
2023-03-10T00:03:18.338Z,10.58
2023-03-10T00:06:21.188Z,10.59
2023-03-10T00:09:22.122Z,10.54
2023-03-10T00:12:25.311Z,10.47
2023-03-10T00:15:26.280Z,10.36
2023-03-10T00:18:27.228Z,10.26
2023-03-10T00:21:30.909Z,10.21
2023-03-10T00:24:32.147Z,10.15
2023-03-10T00:27:33.201Z,10.11
2023-03-10T00:30:34.715Z,10.08
2023-03-10T00:33:35.715Z,10.06
2023-03-10T00:36:36.897Z,10.02
2023-03-10T00:39:37.757Z,9.98
2023-03-10T00:42:38.845Z,9.96
2023-03-10T00:45:39.734Z,9.98
2023-03-10T00:48:40.851Z,10.00
2023-03-10T00:51:41.767Z,10.03
2023-03-10T00:54:42.694Z,10.11
2023-03-10T00:57:43.578Z,10.15
2023-03-10T01:00:44.553Z,10.17
2023-03-10T01:03:46.088Z,10.19
2023-03-10T01:06:47.134Z,10.22
2023-03-10T01:09:48.861Z,10.25
2023-03-10T01:12:52.051Z,10.27
2023-03-10T01:15:53.821Z,10.31
2023-03-10T01:18:55.549Z,10.34
2023-03-10T01:21:56.482Z,10.38
2023-03-10T01:24:57.374Z,10.40
2023-03-10T01:27:58.269Z,10.43
2023-03-10T01:30:59.137Z,10.47
2023-03-10T01:34:00.054Z,10.51
2023-03-10T01:37:01.354Z,10.54
2023-03-10T01:40:04.645Z,10.58
2023-03-10T01:43:21.449Z,10.61
2023-03-10T01:46:48.711Z,10.63
2023-03-10T01:49:55.228Z,10.63
2023-03-10T01:52:57.821Z,10.63
2023-03-10T01:56:00.669Z,10.62
2023-03-10T01:59:03.813Z,10.61
2023-03-10T02:02:04.775Z,10.61
2023-03-10T02:05:06.078Z,10.63
2023-03-10T02:08:08.677Z,10.66
2023-03-10T02:11:10.052Z,10.70
2023-03-10T02:14:10.998Z,10.71
2023-03-10T02:17:16.334Z,10.73
2023-03-10T02:20:29.561Z,10.77
2023-03-10T02:23:45.043Z,10.79
2023-03-10T02:26:53.974Z,10.81
2023-03-10T02:30:24.459Z,10.83
2023-03-10T02:33:27.672Z,10.85
2023-03-10T02:36:29.845Z,10.86
2023-03-10T02:39:30.877Z,10.89
2023-03-10T02:42:34.670Z,10.91
2023-03-10T02:45:37.816Z,10.92
2023-03-10T02:48:39.246Z,10.93
2023-03-10T02:51:45.605Z,10.97
2023-03-10T02:54:48.394Z,10.99
2023-03-10T02:57:49.392Z,11.01
2023-03-10T03:00:50.841Z,11.04
2023-03-10T03:03:52.921Z,11.05
2023-03-10T03:06:54.464Z,11.07
2023-03-10T03:09:55.758Z,11.08
2023-03-10T03:12:56.848Z,11.08
2023-03-10T03:15:58.380Z,11.09
2023-03-10T03:18:59.550Z,11.09
2023-03-10T03:22:00.557Z,11.08
2023-03-10T03:25:02.616Z,11.05
2023-03-10T03:28:04.817Z,11.03
2023-03-10T03:31:05.885Z,11.04
2023-03-10T03:34:07.109Z,11.05
2023-03-10T03:37:08.493Z,11.05
2023-03-10T03:40:13.185Z,11.08
2023-03-10T03:43:15.805Z,11.10
2023-03-10T03:46:17.364Z,11.12
2023-03-10T03:49:18.936Z,11.14
2023-03-10T03:52:20.228Z,11.16
2023-03-10T03:55:21.841Z,11.16
2023-03-10T03:58:24.989Z,11.16
2023-03-10T04:01:25.943Z,11.17
2023-03-10T04:04:28.258Z,11.19
2023-03-10T04:07:30.536Z,11.21
2023-03-10T04:10:31.911Z,11.22
2023-03-10T04:13:33.595Z,11.20
2023-03-10T04:16:35.113Z,11.19
2023-03-10T04:19:36.990Z,11.18
2023-03-10T04:22:41.452Z,11.18
2023-03-10T04:25:43.134Z,11.16
2023-03-10T04:28:44.543Z,11.16
2023-03-10T04:31:55.855Z,11.14
2023-03-10T04:35:05.325Z,11.13
2023-03-10T04:38:07.231Z,11.11
2023-03-10T04:41:08.866Z,11.11
2023-03-10T04:44:29.910Z,11.10
2023-03-10T04:47:31.869Z,11.09
2023-03-10T04:50:34.065Z,11.08
2023-03-10T04:53:36.186Z,11.08
2023-03-10T04:56:37.113Z,11.08
2023-03-10T04:59:38.131Z,11.07
2023-03-10T05:02:39.758Z,11.06
2023-03-10T05:05:41.180Z,11.06
2023-03-10T05:08:42.313Z,11.07
2023-03-10T05:11:44.266Z,11.08
2023-03-10T05:14:45.998Z,11.09
2023-03-10T05:17:49.637Z,11.10
2023-03-10T05:20:53.849Z,11.11
2023-03-10T05:23:55.206Z,11.11
2023-03-10T05:26:57.216Z,11.10
2023-03-10T05:29:59.158Z,11.09
2023-03-10T05:33:00.422Z,11.08
2023-03-10T05:36:06.936Z,11.07
2023-03-10T05:39:09.041Z,11.07
2023-03-10T05:42:12.996Z,11.04
2023-03-10T05:45:16.309Z,11.01
2023-03-10T05:48:17.631Z,10.98
2023-03-10T05:51:19.348Z,10.94
2023-03-10T05:54:21.391Z,10.91
2023-03-10T05:57:22.518Z,10.88
2023-03-10T06:00:23.818Z,10.86
2023-03-10T06:03:29.809Z,10.84
2023-03-10T06:06:30.850Z,10.83
2023-03-10T06:09:32.069Z,10.83
2023-03-10T06:12:33.238Z,10.84
2023-03-10T06:15:34.230Z,10.85
2023-03-10T06:18:35.213Z,10.87
2023-03-10T06:21:36.115Z,10.89
2023-03-10T06:24:37.072Z,10.92
2023-03-10T06:27:37.964Z,10.95
2023-03-10T06:30:38.840Z,11.00
2023-03-10T06:33:39.773Z,11.04
2023-03-10T06:36:40.869Z,11.10
2023-03-10T06:39:42.029Z,11.15
2023-03-10T06:42:43.263Z,11.19
2023-03-10T06:45:45.539Z,11.22
2023-03-10T06:48:46.503Z,11.27
2023-03-10T06:51:47.418Z,11.30
2023-03-10T06:54:48.343Z,11.33
2023-03-10T06:57:49.225Z,11.37
2023-03-10T07:00:50.131Z,11.43
2023-03-10T07:03:51.720Z,11.49
2023-03-10T07:06:52.598Z,11.56
2023-03-10T07:09:53.638Z,11.63
2023-03-10T07:12:58.213Z,11.72
2023-03-10T07:15:59.086Z,11.82
2023-03-10T07:18:59.998Z,11.92
2023-03-10T07:22:00.932Z,12.02
2023-03-10T07:25:01.843Z,12.10
2023-03-10T07:28:03.751Z,12.18
2023-03-10T07:31:07.121Z,12.27
2023-03-10T07:34:08.070Z,12.39
2023-03-10T07:37:10.100Z,12.50
2023-03-10T07:40:11.364Z,12.64
2023-03-10T07:43:12.268Z,12.75
2023-03-10T07:46:14.357Z,12.87
2023-03-10T07:49:15.264Z,12.99
2023-03-10T07:52:17.503Z,13.10
2023-03-10T07:55:18.392Z,13.20
2023-03-10T07:58:19.582Z,13.29
2023-03-10T08:01:21.717Z,13.36
2023-03-10T08:04:22.785Z,13.47
2023-03-10T08:07:26.868Z,13.59
2023-03-10T08:10:27.773Z,13.74
2023-03-10T08:13:28.909Z,13.93
2023-03-10T08:16:29.912Z,14.15
2023-03-10T08:19:30.941Z,14.35
2023-03-10T08:22:32.435Z,14.50
2023-03-10T08:25:33.328Z,14.66
2023-03-10T08:28:34.691Z,14.81
2023-03-10T08:31:35.599Z,14.97
2023-03-10T08:34:36.774Z,15.13
2023-03-10T08:37:37.915Z,15.30
2023-03-10T08:40:38.771Z,15.47
2023-03-10T08:43:40.255Z,15.65
2023-03-10T08:46:45.220Z,15.82
2023-03-10T08:49:48.911Z,16.00
2023-03-10T08:52:50.011Z,16.16
2023-03-10T08:55:50.995Z,16.31
2023-03-10T08:59:00.069Z,16.44
2023-03-10T09:02:01.215Z,16.57
2023-03-10T09:05:02.927Z,16.67
2023-03-10T09:08:04.030Z,16.80
2023-03-10T09:11:04.926Z,16.89
2023-03-10T09:14:07.040Z,16.97
2023-03-10T09:17:09.666Z,17.04
2023-03-10T09:20:14.156Z,17.11
2023-03-10T09:23:16.179Z,17.23
2023-03-10T09:26:17.054Z,17.36
2023-03-10T09:29:17.973Z,17.51
2023-03-10T09:32:19.027Z,17.69
2023-03-10T09:35:20.281Z,17.86
2023-03-10T09:38:21.661Z,18.00
2023-03-10T09:41:44.512Z,18.10
2023-03-10T09:45:00.741Z,18.20
2023-03-10T09:48:13.876Z,18.27
2023-03-10T09:51:21.699Z,18.34
2023-03-10T09:54:37.464Z,18.42
2023-03-10T09:57:38.319Z,18.45
2023-03-10T10:00:41.279Z,18.53
2023-03-10T10:03:53.333Z,18.64
2023-03-10T10:06:56.745Z,18.72
2023-03-10T10:10:01.835Z,18.80
2023-03-10T10:13:14.093Z,18.83
2023-03-10T10:16:55.960Z,18.85
2023-03-10T10:19:58.303Z,18.93
2023-03-10T10:22:59.254Z,19.05
2023-03-10T10:26:09.017Z,19.18
2023-03-10T10:29:21.555Z,19.26
2023-03-10T10:32:22.489Z,19.29
2023-03-10T10:35:25.583Z,19.36
2023-03-10T10:38:29.556Z,19.37
2023-03-10T10:41:32.966Z,19.30
2023-03-10T10:44:39.316Z,19.06
2023-03-10T10:47:51.307Z,18.85
2023-03-10T10:50:53.344Z,18.59
2023-03-10T10:54:30.415Z,18.47
2023-03-10T10:57:35.821Z,18.50
2023-03-10T11:00:37.708Z,18.47
2023-03-10T11:03:48.363Z,18.42
2023-03-10T11:06:50.326Z,18.37
2023-03-10T11:09:51.248Z,18.38
2023-03-10T11:13:03.470Z,18.47
2023-03-10T11:16:37.939Z,18.54
2023-03-10T11:20:22.939Z,18.55
2023-03-10T11:23:51.629Z,18.63
2023-03-10T11:26:55.662Z,18.81
2023-03-10T11:30:05.793Z,18.90
2023-03-10T11:33:20.069Z,18.92
2023-03-10T11:36:55.109Z,18.99
2023-03-10T11:40:23.849Z,19.01
2023-03-10T11:43:33.620Z,19.07
2023-03-10T11:46:34.494Z,19.09
2023-03-10T11:49:36.994Z,19.23
2023-03-10T11:52:38.329Z,19.47
2023-03-10T11:55:40.504Z,19.68
2023-03-10T11:59:00.469Z,19.78
2023-03-10T12:02:25.121Z,19.73
2023-03-10T12:05:26.566Z,19.65
2023-03-10T12:08:31.753Z,19.62
2023-03-10T12:11:34.713Z,19.54
2023-03-10T12:14:36.064Z,19.47
2023-03-10T12:17:38.243Z,19.51
2023-03-10T12:20:39.181Z,19.49
2023-03-10T12:23:43.023Z,19.41
2023-03-10T12:26:44.417Z,19.39
2023-03-10T12:29:45.422Z,19.41
2023-03-10T12:32:47.980Z,19.37
2023-03-10T12:35:50.942Z,19.53
2023-03-10T12:39:25.819Z,19.67
2023-03-10T12:42:26.667Z,19.79
2023-03-10T12:45:28.857Z,19.87
2023-03-10T12:48:32.028Z,19.96
2023-03-10T12:51:39.188Z,20.03
2023-03-10T12:55:02.333Z,19.93
2023-03-10T12:58:22.824Z,19.87
2023-03-10T13:01:27.515Z,19.91
2023-03-10T13:04:28.460Z,19.97
2023-03-10T13:07:30.223Z,19.89
2023-03-10T13:10:32.566Z,19.89
2023-03-10T13:13:34.643Z,19.92
2023-03-10T13:16:36.164Z,20.01
2023-03-10T13:19:37.251Z,20.13
2023-03-10T13:22:38.198Z,20.08
2023-03-10T13:25:50.857Z,19.96
2023-03-10T13:29:02.717Z,19.88
2023-03-10T13:32:04.204Z,19.79
2023-03-10T13:35:21.750Z,19.83
2023-03-10T13:38:23.868Z,19.98
2023-03-10T13:41:25.171Z,20.14
2023-03-10T13:44:33.520Z,20.31
2023-03-10T13:47:34.865Z,20.34
2023-03-10T13:50:35.742Z,20.29
2023-03-10T13:53:36.659Z,20.37
2023-03-10T13:56:38.881Z,20.41
2023-03-10T13:59:40.018Z,20.32
2023-03-10T14:02:41.404Z,20.08
2023-03-10T14:05:46.785Z,19.88
2023-03-10T14:08:49.222Z,19.71
2023-03-10T14:11:50.480Z,19.71
2023-03-10T14:14:52.135Z,19.67
2023-03-10T14:18:08.230Z,19.60
2023-03-10T14:21:33.581Z,19.63
2023-03-10T14:24:34.560Z,19.80
2023-03-10T14:27:36.337Z,19.89
2023-03-10T14:30:38.260Z,19.96
2023-03-10T14:33:41.202Z,19.92
2023-03-10T14:36:43.054Z,19.91
2023-03-10T14:39:44.084Z,19.95
2023-03-10T14:42:46.337Z,20.03
2023-03-10T14:45:49.305Z,19.93
2023-03-10T14:48:50.593Z,19.83
2023-03-10T14:51:52.133Z,19.80
2023-03-10T14:54:53.204Z,19.78
2023-03-10T14:57:58.740Z,19.71
2023-03-10T15:01:00.220Z,19.63
2023-03-10T15:04:01.098Z,19.58
2023-03-10T15:07:02.000Z,19.51
2023-03-10T15:10:14.407Z,19.50
2023-03-10T15:13:17.470Z,19.45
2023-03-10T15:16:18.487Z,19.42
2023-03-10T15:19:24.791Z,19.42
2023-03-10T15:22:25.687Z,19.39
2023-03-10T15:25:26.814Z,19.38
2023-03-10T15:28:27.781Z,19.35
2023-03-10T15:31:28.674Z,19.36
2023-03-10T15:34:29.623Z,19.35
2023-03-10T15:37:30.485Z,19.31
2023-03-10T15:40:32.630Z,19.36
2023-03-10T15:43:33.671Z,19.40
2023-03-10T15:46:34.635Z,19.39
2023-03-10T15:49:38.029Z,19.37
2023-03-10T15:52:39.075Z,19.42
2023-03-10T15:55:41.206Z,19.47
2023-03-10T15:58:42.077Z,19.52
2023-03-10T16:01:43.022Z,19.50
2023-03-10T16:04:44.211Z,19.49
2023-03-10T16:07:45.454Z,19.50
2023-03-10T16:10:53.592Z,19.49
2023-03-10T16:13:54.485Z,19.49
2023-03-10T16:16:57.799Z,19.42
2023-03-10T16:20:09.609Z,19.36
2023-03-10T16:23:10.760Z,19.37
2023-03-10T16:26:11.683Z,19.40
2023-03-10T16:29:12.903Z,19.41
2023-03-10T16:32:14.352Z,19.37
2023-03-10T16:35:16.604Z,19.25
2023-03-10T16:38:17.604Z,19.16
2023-03-10T16:41:19.564Z,19.13
2023-03-10T16:44:20.445Z,19.10
2023-03-10T16:47:21.549Z,19.03
2023-03-10T16:50:22.402Z,18.97
2023-03-10T16:53:23.296Z,18.82
2023-03-10T16:56:58.458Z,18.67
2023-03-10T16:59:59.554Z,18.53
2023-03-10T17:03:00.461Z,18.41
2023-03-10T17:06:01.470Z,18.28
2023-03-10T17:09:04.186Z,18.15
2023-03-10T17:12:05.504Z,18.03
2023-03-10T17:15:06.813Z,17.94
2023-03-10T17:18:07.693Z,17.86
2023-03-10T17:21:14.654Z,17.76
2023-03-10T17:24:17.254Z,17.65
2023-03-10T17:27:18.095Z,17.55
2023-03-10T17:30:19.401Z,17.46
2023-03-10T17:33:20.266Z,17.38
2023-03-10T17:36:21.277Z,17.29
2023-03-10T17:39:23.114Z,17.18
2023-03-10T17:42:25.886Z,17.05
2023-03-10T17:45:27.008Z,16.91
2023-03-10T17:48:28.699Z,16.80
2023-03-10T17:51:30.308Z,16.68
2023-03-10T17:54:31.747Z,16.56
2023-03-10T17:57:32.657Z,16.45
2023-03-10T18:00:33.573Z,16.34
2023-03-10T18:03:35.582Z,16.25
2023-03-10T18:06:37.001Z,16.16
2023-03-10T18:09:38.751Z,16.05
2023-03-10T18:12:39.621Z,15.96
2023-03-10T18:15:40.557Z,15.88
2023-03-10T18:18:41.512Z,15.77
2023-03-10T18:21:42.586Z,15.68
2023-03-10T18:24:43.708Z,15.63
2023-03-10T18:27:44.829Z,15.59
2023-03-10T18:30:47.871Z,15.52
2023-03-10T18:33:48.956Z,15.42
2023-03-10T18:36:51.054Z,15.33
2023-03-10T18:39:52.035Z,15.25
2023-03-10T18:42:53.080Z,15.12
2023-03-10T18:45:57.389Z,15.00
2023-03-10T18:48:58.346Z,14.90
2023-03-10T18:51:59.334Z,14.81
2023-03-10T18:55:00.513Z,14.75
2023-03-10T18:58:01.434Z,14.72
2023-03-10T19:01:02.437Z,14.71
2023-03-10T19:04:03.367Z,14.69
2023-03-10T19:07:05.290Z,14.68
2023-03-10T19:10:07.302Z,14.66
2023-03-10T19:13:08.150Z,14.64
2023-03-10T19:16:09.927Z,14.61
2023-03-10T19:19:10.930Z,14.58
2023-03-10T19:22:11.885Z,14.55
2023-03-10T19:25:12.845Z,14.50
2023-03-10T19:28:13.731Z,14.46
2023-03-10T19:31:15.319Z,14.42
2023-03-10T19:34:25.426Z,14.35
2023-03-10T19:37:27.368Z,14.30
2023-03-10T19:40:28.290Z,14.25
2023-03-10T19:43:29.273Z,14.23
2023-03-10T19:46:30.367Z,14.19
2023-03-10T19:49:33.481Z,14.16
2023-03-10T19:52:35.283Z,14.13
2023-03-10T19:55:37.500Z,14.10
2023-03-10T19:58:39.165Z,14.07
2023-03-10T20:01:41.458Z,14.01
2023-03-10T20:04:43.202Z,13.93
2023-03-10T20:07:48.062Z,13.84
2023-03-10T20:10:49.319Z,13.76
2023-03-10T20:13:52.258Z,13.70
2023-03-10T20:16:53.310Z,13.62
2023-03-10T20:19:54.369Z,13.52
2023-03-10T20:22:55.233Z,13.44
2023-03-10T20:26:00.906Z,13.38
2023-03-10T20:29:01.963Z,13.30
2023-03-10T20:32:03.711Z,13.23
2023-03-10T20:35:05.321Z,13.14
2023-03-10T20:38:06.168Z,13.09
2023-03-10T20:41:07.031Z,13.04
2023-03-10T20:44:13.351Z,12.98
2023-03-10T20:47:14.293Z,12.93
2023-03-10T20:50:16.113Z,12.94
2023-03-10T20:53:16.949Z,13.08
2023-03-10T20:56:17.908Z,13.23
2023-03-10T20:59:18.748Z,13.41
2023-03-10T21:02:19.628Z,13.56
2023-03-10T21:05:20.737Z,13.69
2023-03-10T21:08:21.580Z,13.79
2023-03-10T21:11:22.543Z,13.87
2023-03-10T21:14:23.377Z,13.91
2023-03-10T21:17:26.401Z,13.93
2023-03-10T21:20:28.573Z,13.96
2023-03-10T21:23:29.470Z,13.97
2023-03-10T21:26:30.774Z,13.96
2023-03-10T21:29:33.223Z,13.94
2023-03-10T21:32:34.136Z,13.93
2023-03-10T21:35:37.786Z,13.92
2023-03-10T21:38:38.763Z,13.89
2023-03-10T21:41:39.778Z,13.88
2023-03-10T21:44:40.804Z,13.87
2023-03-10T21:47:42.232Z,13.86
2023-03-10T21:50:43.233Z,13.84
2023-03-10T21:53:44.868Z,13.81
2023-03-10T21:56:45.768Z,13.78
2023-03-10T21:59:46.663Z,13.75
2023-03-10T22:02:47.613Z,13.72
2023-03-10T22:05:49.162Z,13.69
2023-03-10T22:08:51.366Z,13.66
2023-03-10T22:11:52.311Z,13.63
2023-03-10T22:14:56.858Z,13.58
2023-03-10T22:17:58.941Z,13.53
2023-03-10T22:21:00.096Z,13.48
2023-03-10T22:24:05.460Z,13.45
2023-03-10T22:27:07.186Z,13.42
2023-03-10T22:30:10.672Z,13.40
2023-03-10T22:33:11.519Z,13.35
2023-03-10T22:36:12.609Z,13.32
2023-03-10T22:39:13.863Z,13.27
2023-03-10T22:42:14.698Z,13.24
2023-03-10T22:45:19.459Z,13.21
2023-03-10T22:48:20.348Z,13.17
2023-03-10T22:51:25.329Z,13.15
2023-03-10T22:54:26.278Z,13.14
2023-03-10T22:57:27.160Z,13.11
2023-03-10T23:00:28.695Z,13.07
2023-03-10T23:03:30.597Z,13.04
2023-03-10T23:06:34.874Z,13.01
2023-03-10T23:09:35.733Z,12.98
2023-03-10T23:12:38.650Z,12.95
2023-03-10T23:15:40.037Z,12.92
2023-03-10T23:18:40.877Z,12.89
2023-03-10T23:21:41.775Z,12.85
2023-03-10T23:24:42.601Z,12.81
2023-03-10T23:27:43.494Z,12.78
2023-03-10T23:30:46.278Z,12.75
2023-03-10T23:33:47.840Z,12.71
2023-03-10T23:36:49.293Z,12.68
2023-03-10T23:39:50.475Z,12.65
2023-03-10T23:42:51.532Z,12.63
2023-03-10T23:45:52.862Z,12.62
2023-03-10T23:48:53.789Z,12.60
2023-03-10T23:51:55.633Z,12.59
2023-03-10T23:54:56.477Z,12.58
2023-03-10T23:57:57.437Z,12.57
